createdAt,value
2022-08-17T00:00:42.861Z,21.45
2022-08-17T00:03:02.981Z,21.46
2022-08-17T00:05:36.540Z,21.49
2022-08-17T00:08:05.443Z,21.50
2022-08-17T00:10:33.194Z,21.45
2022-08-17T00:13:06.170Z,21.42
2022-08-17T00:15:34.364Z,21.40
2022-08-17T00:18:02.076Z,21.39
2022-08-17T00:20:32.146Z,21.37
2022-08-17T00:23:12.798Z,21.36
2022-08-17T00:25:41.854Z,21.35
2022-08-17T00:28:09.870Z,21.29
2022-08-17T00:30:52.994Z,21.28
2022-08-17T00:33:26.337Z,21.26
2022-08-17T00:35:55.500Z,21.27
2022-08-17T00:38:25.120Z,21.25
2022-08-17T00:41:02.161Z,21.19
2022-08-17T00:43:38.720Z,21.16
2022-08-17T00:46:10.079Z,21.15
2022-08-17T00:48:38.346Z,21.10
2022-08-17T00:51:12.090Z,21.07
2022-08-17T00:53:44.632Z,21.02
2022-08-17T00:56:16.780Z,20.95
2022-08-17T00:58:44.876Z,20.92
2022-08-17T01:01:21.543Z,20.96
2022-08-17T01:03:53.402Z,20.98
2022-08-17T01:06:25.657Z,21.02
2022-08-17T01:08:57.622Z,20.98
2022-08-17T01:11:26.873Z,20.94
2022-08-17T01:13:54.639Z,20.92
2022-08-17T01:16:28.518Z,20.93
2022-08-17T01:19:11.117Z,20.93
2022-08-17T01:22:06.501Z,20.88
2022-08-17T01:24:37.110Z,20.87
2022-08-17T01:27:10.119Z,20.88
2022-08-17T01:29:40.941Z,20.88
2022-08-17T01:32:08.722Z,20.90
2022-08-17T01:34:42.953Z,20.90
2022-08-17T01:37:20.005Z,20.88
2022-08-17T01:40:09.292Z,20.85
2022-08-17T01:42:58.935Z,20.81
2022-08-17T01:45:30.437Z,20.73
2022-08-17T01:47:58.582Z,20.76
2022-08-17T01:50:34.921Z,20.80
2022-08-17T01:53:06.496Z,20.79
2022-08-17T01:55:40.398Z,20.75
2022-08-17T01:58:09.855Z,20.71
2022-08-17T02:00:59.418Z,20.67
2022-08-17T02:03:27.633Z,20.70
2022-08-17T02:05:55.341Z,20.69
2022-08-17T02:08:39.164Z,20.69
2022-08-17T02:11:16.893Z,20.69
2022-08-17T02:13:46.333Z,20.67
2022-08-17T02:16:14.623Z,20.67
2022-08-17T02:18:42.302Z,20.62
2022-08-17T02:21:10.406Z,20.62
2022-08-17T02:23:41.673Z,20.64
2022-08-17T02:26:09.815Z,20.61
2022-08-17T02:28:53.733Z,20.61
2022-08-17T02:31:21.351Z,20.58
2022-08-17T02:34:00.411Z,20.57
2022-08-17T02:36:34.556Z,20.57
2022-08-17T02:39:04.633Z,20.52
2022-08-17T02:41:33.005Z,20.47
2022-08-17T02:44:01.112Z,20.46
2022-08-17T02:46:30.468Z,20.44
2022-08-17T02:48:59.140Z,20.40
2022-08-17T02:51:27.235Z,20.35
2022-08-17T02:54:38.941Z,20.30
2022-08-17T02:56:43.009Z,20.26
2022-08-17T02:59:10.517Z,20.25
2022-08-17T03:01:38.151Z,20.26
2022-08-17T03:04:06.351Z,20.25
2022-08-17T03:06:33.982Z,20.25
2022-08-17T03:09:01.789Z,20.21
2022-08-17T03:11:29.840Z,20.16
2022-08-17T03:13:58.506Z,20.14
2022-08-17T03:16:25.960Z,20.14
2022-08-17T03:18:55.035Z,20.15
2022-08-17T03:21:22.532Z,20.16
2022-08-17T03:23:49.956Z,20.14
2022-08-17T03:26:22.448Z,20.14
2022-08-17T03:28:50.432Z,20.11
2022-08-17T03:31:18.439Z,20.09
2022-08-17T03:33:46.169Z,20.02
2022-08-17T03:36:13.823Z,20.02
2022-08-17T03:38:41.633Z,20.05
2022-08-17T03:41:09.373Z,20.03
2022-08-17T03:43:36.849Z,20.00
2022-08-17T03:46:33.971Z,19.99
2022-08-17T03:49:27.312Z,20.01
2022-08-17T03:52:15.229Z,20.01
2022-08-17T03:55:03.197Z,20.00
2022-08-17T03:57:31.445Z,19.99
2022-08-17T04:00:00.151Z,20.00
2022-08-17T04:02:31.505Z,19.99
2022-08-17T04:04:59.972Z,19.98
2022-08-17T04:07:30.245Z,19.99
2022-08-17T04:10:01.074Z,20.01
2022-08-17T04:12:30.952Z,20.04
2022-08-17T04:14:59.183Z,19.73
2022-08-17T04:17:28.652Z,19.97
2022-08-17T04:20:08.584Z,20.03
2022-08-17T04:22:36.113Z,20.08
2022-08-17T04:25:24.612Z,20.15
2022-08-17T04:27:52.309Z,20.18
2022-08-17T04:30:21.313Z,20.19
2022-08-17T04:33:06.230Z,20.22
2022-08-17T04:35:41.175Z,20.28
2022-08-17T04:38:12.045Z,20.29
2022-08-17T04:40:58.731Z,20.34
2022-08-17T04:43:31.079Z,20.40
2022-08-17T04:46:04.835Z,20.50
2022-08-17T04:48:37.392Z,20.13
2022-08-17T04:51:13.200Z,20.23
2022-08-17T04:53:43.021Z,20.32
2022-08-17T04:56:16.648Z,20.47
2022-08-17T04:58:48.301Z,20.55
2022-08-17T05:01:24.025Z,20.61
2022-08-17T05:03:53.853Z,20.71
2022-08-17T05:06:22.095Z,20.77
2022-08-17T05:08:49.670Z,20.87
2022-08-17T05:11:17.996Z,20.97
2022-08-17T05:13:46.067Z,21.02
2022-08-17T05:16:13.617Z,20.86
2022-08-17T05:18:41.162Z,20.99
2022-08-17T05:21:09.001Z,21.20
2022-08-17T05:23:41.799Z,21.33
2022-08-17T05:26:25.423Z,21.30
2022-08-17T05:28:57.234Z,21.50
2022-08-17T05:31:29.382Z,21.55
2022-08-17T05:33:56.999Z,21.77
2022-08-17T05:36:43.022Z,21.89
2022-08-17T05:39:15.779Z,22.00
2022-08-17T05:41:48.165Z,22.02
2022-08-17T05:44:16.581Z,22.16
2022-08-17T05:46:50.045Z,22.25
2022-08-17T05:49:28.155Z,22.16
2022-08-17T05:52:10.713Z,22.40
2022-08-17T05:54:47.355Z,22.46
2022-08-17T05:57:59.844Z,22.58
2022-08-17T06:00:37.183Z,22.68
2022-08-17T06:03:29.255Z,22.84
2022-08-17T06:06:31.755Z,22.78
2022-08-17T06:09:11.496Z,22.86
2022-08-17T06:11:47.364Z,22.93
2022-08-17T06:14:27.513Z,23.08
2022-08-17T06:17:00.941Z,23.16
2022-08-17T06:19:45.998Z,23.32
2022-08-17T06:22:16.779Z,23.60
2022-08-17T06:24:54.100Z,23.74
2022-08-17T06:27:40.268Z,23.79
2022-08-17T06:30:17.702Z,23.94
2022-08-17T06:32:48.133Z,24.13
2022-08-17T06:35:22.059Z,24.13
2022-08-17T06:38:37.046Z,24.39
2022-08-17T06:41:15.557Z,24.55
2022-08-17T06:43:48.920Z,24.75
2022-08-17T06:46:21.913Z,24.90
2022-08-17T06:49:09.627Z,25.04
2022-08-17T06:51:50.616Z,25.13
2022-08-17T06:54:27.274Z,25.12
2022-08-17T06:57:10.020Z,25.17
2022-08-17T06:59:55.362Z,25.42
2022-08-17T07:03:02.552Z,25.54
2022-08-17T07:05:33.289Z,25.75
2022-08-17T07:08:17.019Z,25.66
2022-08-17T07:10:54.805Z,25.94
2022-08-17T07:13:31.606Z,25.83
2022-08-17T07:16:24.100Z,25.93
2022-08-17T07:18:54.777Z,26.11
2022-08-17T07:21:38.516Z,26.42
2022-08-17T07:24:39.355Z,26.67
2022-08-17T07:27:09.376Z,26.86
2022-08-17T07:29:46.965Z,26.68
2022-08-17T07:32:18.655Z,26.93
2022-08-17T07:35:21.156Z,27.11
2022-08-17T07:38:25.626Z,27.30
2022-08-17T07:40:57.908Z,27.47
2022-08-17T07:43:34.799Z,27.72
2022-08-17T07:46:41.912Z,27.74
2022-08-17T07:49:09.347Z,27.75
2022-08-17T07:52:00.011Z,28.03
2022-08-17T07:54:46.614Z,28.11
2022-08-17T07:57:14.337Z,28.20
2022-08-17T08:00:01.559Z,28.34
2022-08-17T08:02:38.232Z,28.21
2022-08-17T08:05:48.691Z,28.29
2022-08-17T08:08:21.413Z,28.19
2022-08-17T08:11:09.024Z,28.48
2022-08-17T08:13:43.820Z,28.76
2022-08-17T08:16:27.094Z,28.81
2022-08-17T08:19:00.622Z,28.65
2022-08-17T08:21:55.234Z,29.11
2022-08-17T08:24:44.442Z,29.41
2022-08-17T08:27:50.356Z,29.62
2022-08-17T08:30:21.427Z,29.72
2022-08-17T08:33:04.153Z,29.76
2022-08-17T08:35:48.070Z,29.64
2022-08-17T08:38:25.474Z,29.14
2022-08-17T08:41:29.725Z,29.51
2022-08-17T08:44:06.472Z,29.99
2022-08-17T08:46:44.220Z,30.06
2022-08-17T08:49:12.589Z,30.08
2022-08-17T08:52:14.101Z,30.17
2022-08-17T08:55:13.761Z,30.27
2022-08-17T08:57:54.046Z,30.17
2022-08-17T09:00:26.297Z,30.16
2022-08-17T09:03:20.050Z,30.09
2022-08-17T09:06:32.044Z,30.50
2022-08-17T09:09:27.302Z,30.87
2022-08-17T09:12:02.202Z,30.29
2022-08-17T09:15:01.251Z,30.81
2022-08-17T09:17:38.841Z,31.14
2022-08-17T09:20:27.623Z,31.27
2022-08-17T09:23:09.231Z,31.13
2022-08-17T09:25:54.238Z,30.64
2022-08-17T09:28:32.637Z,30.85
2022-08-17T09:31:07.741Z,30.99
2022-08-17T09:33:43.026Z,31.09
2022-08-17T09:36:23.801Z,31.35
2022-08-17T09:38:58.300Z,31.43
2022-08-17T09:41:39.181Z,31.45
2022-08-17T09:44:23.940Z,31.18
2022-08-17T09:47:13.945Z,31.36
2022-08-17T09:49:50.340Z,31.51
2022-08-17T09:52:22.688Z,31.54
2022-08-17T09:54:53.347Z,31.68
2022-08-17T09:57:32.330Z,31.97
2022-08-17T10:00:16.438Z,31.91
2022-08-17T10:03:00.475Z,31.98
2022-08-17T10:05:46.492Z,31.76
2022-08-17T10:08:35.098Z,31.87
2022-08-17T10:11:08.620Z,31.63
2022-08-17T10:14:36.064Z,32.18
2022-08-17T10:17:00.809Z,32.31
2022-08-17T10:19:37.877Z,32.47
2022-08-17T10:22:37.978Z,32.13
2022-08-17T10:25:37.817Z,32.30
2022-08-17T10:28:20.994Z,32.06
2022-08-17T10:31:10.728Z,32.34
2022-08-17T10:34:19.154Z,32.96
2022-08-17T10:37:06.469Z,33.19
2022-08-17T10:40:00.533Z,32.81
2022-08-17T10:42:33.776Z,33.16
2022-08-17T10:45:14.937Z,32.98
2022-08-17T10:48:31.408Z,33.07
2022-08-17T10:51:20.500Z,33.49
2022-08-17T10:53:49.370Z,33.71
2022-08-17T10:56:22.465Z,33.91
2022-08-17T10:58:58.595Z,33.87
2022-08-17T11:01:29.473Z,33.71
2022-08-17T11:04:01.253Z,33.39
2022-08-17T11:06:38.024Z,32.78
2022-08-17T11:09:21.225Z,33.77
2022-08-17T11:11:58.739Z,33.89
2022-08-17T11:14:47.258Z,33.36
2022-08-17T11:17:49.792Z,33.49
2022-08-17T11:20:21.438Z,33.62
2022-08-17T11:22:59.772Z,33.08
2022-08-17T11:25:41.183Z,33.48
2022-08-17T11:28:22.062Z,33.14
2022-08-17T11:30:55.389Z,33.69
2022-08-17T11:33:28.997Z,34.05
2022-08-17T11:36:11.900Z,34.06
2022-08-17T11:39:18.409Z,33.90
2022-08-17T11:41:56.413Z,34.44
2022-08-17T11:44:37.721Z,34.42
2022-08-17T11:47:36.777Z,34.38
2022-08-17T11:50:46.102Z,34.42
2022-08-17T11:53:38.799Z,33.97
2022-08-17T11:56:31.728Z,34.22
2022-08-17T11:59:01.201Z,33.85
2022-08-17T12:01:47.131Z,34.01
2022-08-17T12:04:26.135Z,34.12
2022-08-17T12:07:20.586Z,34.29
2022-08-17T12:09:53.540Z,34.77
2022-08-17T12:12:33.113Z,34.52
2022-08-17T12:15:10.496Z,34.11
2022-08-17T12:17:42.632Z,33.68
2022-08-17T12:20:39.969Z,33.92
2022-08-17T12:23:41.688Z,34.19
2022-08-17T12:26:15.938Z,34.22
2022-08-17T12:28:57.405Z,34.43
2022-08-17T12:31:34.473Z,34.75
2022-08-17T12:34:04.465Z,34.75
2022-08-17T12:36:33.430Z,34.62
2022-08-17T12:39:13.066Z,34.88
2022-08-17T12:41:46.881Z,34.74
2022-08-17T12:44:24.200Z,34.75
2022-08-17T12:47:04.713Z,34.53
2022-08-17T12:49:35.656Z,34.47
2022-08-17T12:52:17.014Z,34.67
2022-08-17T12:54:44.362Z,33.80
2022-08-17T12:57:43.572Z,34.04
2022-08-17T13:00:17.436Z,33.88
2022-08-17T13:02:49.857Z,33.77
2022-08-17T13:05:29.953Z,33.53
2022-08-17T13:08:00.223Z,34.00
2022-08-17T13:10:34.669Z,34.07
2022-08-17T13:13:05.895Z,33.97
2022-08-17T13:15:53.036Z,33.90
2022-08-17T13:18:38.830Z,34.21
2022-08-17T13:21:18.069Z,34.17
2022-08-17T13:24:19.848Z,34.40
2022-08-17T13:27:01.049Z,33.96
2022-08-17T13:29:53.487Z,34.00
2022-08-17T13:32:43.729Z,34.44
2022-08-17T13:35:45.905Z,34.49
2022-08-17T13:38:40.526Z,34.60
2022-08-17T13:41:28.347Z,34.43
2022-08-17T13:43:56.021Z,34.45
2022-08-17T13:46:31.081Z,34.89
2022-08-17T13:49:05.590Z,34.82
2022-08-17T13:51:46.216Z,34.49
2022-08-17T13:54:28.156Z,34.84
2022-08-17T13:57:06.662Z,34.66
2022-08-17T13:59:53.596Z,34.50
2022-08-17T14:02:22.830Z,34.48
2022-08-17T14:04:57.049Z,34.86
2022-08-17T14:07:32.140Z,34.87
2022-08-17T14:10:05.275Z,34.51
2022-08-17T14:12:34.880Z,34.43
2022-08-17T14:15:03.873Z,34.83
2022-08-17T14:17:35.028Z,34.69
2022-08-17T14:20:09.819Z,34.40
2022-08-17T14:22:41.125Z,34.64
2022-08-17T14:25:12.594Z,34.81
2022-08-17T14:27:43.507Z,34.93
2022-08-17T14:30:29.961Z,34.62
2022-08-17T14:32:58.297Z,34.62
2022-08-17T14:35:27.942Z,34.72
2022-08-17T14:37:56.146Z,34.62
2022-08-17T14:40:24.796Z,34.65
2022-08-17T14:42:55.182Z,34.63
2022-08-17T14:45:29.881Z,34.75
2022-08-17T14:48:04.092Z,34.40
2022-08-17T14:50:32.069Z,34.98
2022-08-17T14:53:05.721Z,34.94
2022-08-17T14:55:33.597Z,35.19
2022-08-17T14:58:01.434Z,34.82
2022-08-17T15:00:29.704Z,35.30
2022-08-17T15:02:58.936Z,35.36
2022-08-17T15:05:33.441Z,35.28
2022-08-17T15:08:02.898Z,35.01
2022-08-17T15:10:31.593Z,34.24
2022-08-17T15:13:00.499Z,34.44
2022-08-17T15:15:28.763Z,34.17
2022-08-17T15:17:57.225Z,34.05
2022-08-17T15:20:28.295Z,34.24
2022-08-17T15:22:58.708Z,34.15
2022-08-17T15:25:28.889Z,34.52
2022-08-17T15:27:56.843Z,34.67
2022-08-17T15:30:26.606Z,34.66
2022-08-17T15:32:55.585Z,34.60
2022-08-17T15:35:28.315Z,34.49
2022-08-17T15:37:58.448Z,34.12
2022-08-17T15:40:27.030Z,33.57
2022-08-17T15:42:54.480Z,33.83
2022-08-17T15:45:24.867Z,33.64
2022-08-17T15:47:53.307Z,33.49
2022-08-17T15:50:21.111Z,33.44
2022-08-17T15:52:56.028Z,33.42
2022-08-17T15:55:24.664Z,33.30
2022-08-17T15:57:52.421Z,33.18
2022-08-17T16:00:20.584Z,32.98
2022-08-17T16:03:46.006Z,32.89
2022-08-17T16:05:36.125Z,32.81
2022-08-17T16:08:04.870Z,32.83
2022-08-17T16:10:35.187Z,32.74
2022-08-17T16:13:04.383Z,32.66
2022-08-17T16:15:32.271Z,32.62
2022-08-17T16:17:59.782Z,32.58
2022-08-17T16:20:27.630Z,32.44
2022-08-17T16:22:55.699Z,32.33
2022-08-17T16:25:38.311Z,32.18
2022-08-17T16:28:17.372Z,32.20
2022-08-17T16:30:45.502Z,32.21
2022-08-17T16:33:13.582Z,32.12
2022-08-17T16:35:42.095Z,32.12
2022-08-17T16:38:10.862Z,32.14
2022-08-17T16:40:38.447Z,32.06
2022-08-17T16:43:10.554Z,32.03
2022-08-17T16:45:40.488Z,31.93
2022-08-17T16:48:09.622Z,31.79
2022-08-17T16:50:37.573Z,31.75
2022-08-17T16:53:10.969Z,31.69
2022-08-17T16:55:39.108Z,31.63
2022-08-17T16:58:06.894Z,31.54
2022-08-17T17:00:36.138Z,31.41
2022-08-17T17:03:18.961Z,31.25
2022-08-17T17:06:27.853Z,31.09
2022-08-17T17:09:00.377Z,30.91
2022-08-17T17:11:36.977Z,30.77
2022-08-17T17:14:14.510Z,30.63
2022-08-17T17:16:52.475Z,30.51
2022-08-17T17:19:41.314Z,30.40
2022-08-17T17:22:29.492Z,30.19
2022-08-17T17:25:13.602Z,30.12
2022-08-17T17:28:01.502Z,29.92
2022-08-17T17:30:44.445Z,29.85
2022-08-17T17:33:11.795Z,29.74
2022-08-17T17:36:13.353Z,29.63
2022-08-17T17:38:45.144Z,29.49
2022-08-17T17:41:25.835Z,29.38
2022-08-17T17:44:04.748Z,29.26
2022-08-17T17:46:37.952Z,29.12
2022-08-17T17:49:06.230Z,29.02
2022-08-17T17:51:54.734Z,28.93
2022-08-17T17:54:41.389Z,28.83
2022-08-17T17:57:18.295Z,28.70
2022-08-17T18:00:25.107Z,28.59
2022-08-17T18:02:58.917Z,28.50
2022-08-17T18:05:29.833Z,28.40
2022-08-17T18:08:32.071Z,28.31
2022-08-17T18:11:06.326Z,28.24
2022-08-17T18:14:04.985Z,28.12
2022-08-17T18:16:32.983Z,28.03
2022-08-17T18:19:01.299Z,27.90
2022-08-17T18:21:35.409Z,27.83
2022-08-17T18:24:06.919Z,27.76
2022-08-17T18:26:55.271Z,27.67
2022-08-17T18:29:32.090Z,27.56
2022-08-17T18:32:16.845Z,27.45
2022-08-17T18:34:48.772Z,27.29
2022-08-17T18:37:36.263Z,27.14
2022-08-17T18:40:16.749Z,27.01
2022-08-17T18:42:56.240Z,26.87
2022-08-17T18:45:38.507Z,26.77
2022-08-17T18:48:21.932Z,26.69
2022-08-17T18:50:53.399Z,26.61
2022-08-17T18:53:30.159Z,26.51
2022-08-17T18:56:20.188Z,26.36
2022-08-17T18:59:12.514Z,26.22
2022-08-17T19:02:09.968Z,26.16
2022-08-17T19:04:43.112Z,26.16
2022-08-17T19:07:24.655Z,26.11
2022-08-17T19:09:56.161Z,26.09
2022-08-17T19:12:50.212Z,26.05
2022-08-17T19:15:26.946Z,26.01
2022-08-17T19:18:03.510Z,25.96
2022-08-17T19:20:41.666Z,25.90
2022-08-17T19:23:33.404Z,25.82
2022-08-17T19:26:02.478Z,25.73
2022-08-17T19:28:44.299Z,25.61
2022-08-17T19:31:22.089Z,25.52
2022-08-17T19:33:50.501Z,25.41
2022-08-17T19:36:26.181Z,25.36
2022-08-17T19:39:06.335Z,25.30
2022-08-17T19:41:58.857Z,25.21
2022-08-17T19:44:47.045Z,25.14
2022-08-17T19:47:36.263Z,25.09
2022-08-17T19:50:16.452Z,24.99
2022-08-17T19:52:52.757Z,24.94
2022-08-17T19:55:57.959Z,24.80
2022-08-17T19:58:40.722Z,24.76
2022-08-17T20:01:19.431Z,24.78
2022-08-17T20:04:12.957Z,24.75
2022-08-17T20:06:43.982Z,24.76
2022-08-17T20:09:29.593Z,24.76
2022-08-17T20:12:16.749Z,24.74
2022-08-17T20:14:55.597Z,24.75
2022-08-17T20:17:32.543Z,24.78
2022-08-17T20:20:20.703Z,24.77
2022-08-17T20:23:01.993Z,24.78
2022-08-17T20:25:36.559Z,24.77
2022-08-17T20:28:21.062Z,24.73
2022-08-17T20:30:49.153Z,24.72
2022-08-17T20:33:36.733Z,24.73
2022-08-17T20:36:21.019Z,24.70
2022-08-17T20:38:53.469Z,24.68
2022-08-17T20:41:26.852Z,24.68
2022-08-17T20:43:57.030Z,24.66
2022-08-17T20:46:36.749Z,24.65
2022-08-17T20:49:22.778Z,24.64
2022-08-17T20:52:09.958Z,24.60
2022-08-17T20:54:54.617Z,24.59
2022-08-17T20:57:34.044Z,24.57
2022-08-17T21:00:16.001Z,24.55
2022-08-17T21:02:50.324Z,24.53
2022-08-17T21:05:57.336Z,24.48
2022-08-17T21:08:41.361Z,24.42
2022-08-17T21:12:02.835Z,24.41
2022-08-17T21:14:37.322Z,24.39
2022-08-17T21:17:17.696Z,24.32
2022-08-17T21:20:13.057Z,24.31
2022-08-17T21:23:09.117Z,24.31
2022-08-17T21:26:07.041Z,24.26
2022-08-17T21:29:29.964Z,24.21
2022-08-17T21:32:03.331Z,24.17
2022-08-17T21:34:33.845Z,24.12
2022-08-17T21:37:19.899Z,24.07
2022-08-17T21:39:56.530Z,23.98
2022-08-17T21:42:34.428Z,23.96
2022-08-17T21:45:09.668Z,23.91
2022-08-17T21:47:43.571Z,23.86
2022-08-17T21:50:21.192Z,23.96
2022-08-17T21:52:53.896Z,24.00
2022-08-17T21:55:30.031Z,24.02
2022-08-17T21:58:14.148Z,23.99
2022-08-17T22:00:44.631Z,23.92
2022-08-17T22:03:24.073Z,23.80
2022-08-17T22:05:51.742Z,23.77
2022-08-17T22:08:23.946Z,23.80
2022-08-17T22:11:01.204Z,23.82
2022-08-17T22:13:29.696Z,23.81
2022-08-17T22:16:03.801Z,23.81
2022-08-17T22:18:44.833Z,23.71
2022-08-17T22:21:12.389Z,23.61
2022-08-17T22:24:05.713Z,23.63
2022-08-17T22:27:03.724Z,23.65
2022-08-17T22:29:47.245Z,23.73
2022-08-17T22:32:41.458Z,23.75
2022-08-17T22:35:28.562Z,23.75
2022-08-17T22:37:57.573Z,23.76
2022-08-17T22:40:31.200Z,23.80
2022-08-17T22:43:03.331Z,23.84
2022-08-17T22:45:31.247Z,23.85
2022-08-17T22:48:02.024Z,23.85
2022-08-17T22:50:31.570Z,23.83
2022-08-17T22:53:45.232Z,23.83
2022-08-17T22:56:38.780Z,23.83
2022-08-17T22:59:22.465Z,23.80
2022-08-17T23:02:34.943Z,23.79
2022-08-17T23:05:10.063Z,23.76
2022-08-17T23:07:37.546Z,23.75
2022-08-17T23:10:06.527Z,23.75
2022-08-17T23:12:39.935Z,23.70
2022-08-17T23:15:15.985Z,23.67
2022-08-17T23:17:44.530Z,23.63
2022-08-17T23:20:15.489Z,23.60
2022-08-17T23:22:52.460Z,23.58
2022-08-17T23:25:33.516Z,23.57
2022-08-17T23:28:03.313Z,23.52
2022-08-17T23:30:34.973Z,23.53
2022-08-17T23:33:19.459Z,23.51
2022-08-17T23:35:47.460Z,23.46
2022-08-17T23:38:14.954Z,23.49
2022-08-17T23:40:42.433Z,23.45
2022-08-17T23:43:24.308Z,23.42
2022-08-17T23:45:59.635Z,23.38
2022-08-17T23:48:35.325Z,23.36
2022-08-17T23:51:09.116Z,23.34
2022-08-17T23:53:41.986Z,23.21
2022-08-17T23:56:11.228Z,23.10
2022-08-17T23:58:44.907Z,22.85
